Seward, AK (99664)

4:00 PM AKST on December 02, 2016 (GMT -0900)
Hook Towers | | Change Station

Elev 171 ft 60.13 °N, 149.45 °W | Updated 0 second ago

Partly Cloudy
Partly Cloudy
27.1 °F
Feels Like 18 °F
N
9.6
Wind Variable Wind from NE
Gusts 26.0 mph

Today
High -- | Low -- °F
--% Chance of Precip.
Yesterday
High -- | Low -- °F
Precip. -- in
Pressure 29.23 in
Visibility 10.0 miles
Clouds Few 5000 ft
Windchill 18 °F
Dew Point 16 °F
Humidity 64%
Rainfall 0.00 in
Snow Depth Not available.
9:37 AM 3:57 PM
Waxing Crescent, 11% visible
METAR PAWD 030053Z AUTO 33024G37KT 10SM FEW050 M02/M10 A2923 RMK AO2 PK WND 32040/0041 SLP897 T10221100 TSNO
Pressure 29.23 in
Visibility 10.0 miles
Clouds Few 5000 ft
Windchill 18 °F
Dew Point 16 °F
Humidity 64%
Rainfall 0.00 in
Snow Depth Not available.
9:37 AM 3:57 PM
Waxing Crescent, 11% visible
METAR PAWD 030053Z AUTO 33024G37KT 10SM FEW050 M02/M10 A2923 RMK AO2 PK WND 32040/0041 SLP897 T10221100 TSNO

10-Day Weather Forecast

Almanac

Astronomy

Dec. 02, 2016 Rise Set
Actual Time
Civil Twilight
Nautical Twilight
Astronomical Twilight
Moon
Length of Visible Light
Length of Day
Tomorrow will be .
, % of the Moon is Illuminated

Today's Extremes

State Highs State Lows

Community

WunderPhotos

Upload Photos

1,955,381 photos uploaded!

WunderBlog® & News

Nearby

Air Quality

  Air Quality AQ Index Pollutant
Not available.

Snow Depth

Station Depth Elevation

Earthquake Activity

City Distance Mag. Time & Date
Minimum magnitude displayed is 2.5.

Coastal Water Temperatures

Place Temperature

Stations

Nearby Weather Stations

Station Location Temp. Windchill Dew Point Humidity Wind Precip. Elev Updated Type
                   

Watches & Warnings

There are currently no watches in effect.